Terminal Aerodrome Forecast
Issued by NWS

Home | Current Version | Previous Version | Text Only | Print | Product List | Glossary On
Versions: 1 2 3 4 5 6 7 8 9 10 11 12 13 14 15 16 17 18 19 20 21 22 23 24 25 26 27
000
FTUS43 KDLH 170100 AAA
TAFBRD
TAF AMD
KBRD 170100Z 1701/1724 33010KT P6SM FEW022 BKN070
     FM170400 33007KT P6SM BKN013 OVC027
     FM171700 35005KT P6SM BKN020 OVC060=

USA.gov is the U.S. government's official web portal to all federal, state and local government web resources and services.